Wednesday, May 24, 2017, 4:15 AM EDT

KDYL, Doylestown Airport

Location: Doylestown, PA, United States Lat: 40.333
Local Time: 4:15 AM EDT ( 8:15 GMT) Lon: -75.117
Time Zone: US/Eastern Elev: 393 ft

Show me the last for .
Show Decoded

2017-05-24 03:54 METAR KDYL 240754Z AUTO 35003KT 10SM SCT110 13/13 A2972 RMK AO2 RAE21 SLP062
                 P0000 T01330128 =
2017-05-24 02:54 METAR KDYL 240654Z AUTO 00000KT 10SM -RA OVC100 13/13 A2973 RMK AO2 SLP067 P0000
                 T01330128 =
2017-05-24 01:54 METAR KDYL 240554Z AUTO 00000KT 10SM -RA OVC100 14/13 A2974 RMK AO2 RAB47 SLP070
                 P0000 60000 T01390128 10161 20139 56020 =
2017-05-24 00:54 METAR KDYL 240454Z AUTO 00000KT 10SM OVC110 14/13 A2975 RMK AO2 SLP071 T01390128
                 401830122 =
2017-05-23 23:54 METAR KDYL 240354Z AUTO 00000KT 10SM CLR 14/13 A2977 RMK AO2 SLP081 T01390128 =
2017-05-23 22:54 METAR KDYL 240254Z AUTO 03003KT 10SM SCT110 14/13 A2980 RMK AO2 SLP090 T01440128
                 58010 =
2017-05-23 21:54 METAR KDYL 240154Z AUTO 00000KT 10SM OVC120 15/13 A2983 RMK AO2 SLP101 T01500128
                 =
2017-05-23 20:54 METAR KDYL 240054Z AUTO 00000KT 10SM BKN120 16/12 A2982 RMK AO2 SLP098 T01560122
                 =
2017-05-23 19:54 METAR KDYL 232354Z AUTO 00000KT 10SM OVC120 16/12 A2983 RMK AO2 SLP101 T01610122
                 10183 20161 56009 =
2017-05-23 18:54 METAR KDYL 232254Z AUTO 00000KT 10SM BKN110 17/12 A2984 RMK AO2 SLP102 T01670122
                 =
2017-05-23 17:54 METAR KDYL 232154Z AUTO 00000KT 10SM CLR 17/12 A2984 RMK AO2 SLP102 T01720117 =
2017-05-23 16:54 METAR KDYL 232054Z AUTO 00000KT 10SM CLR 18/12 A2986 RMK AO2 SLP110 T01780117
                 56020 =
2017-05-23 15:54 METAR KDYL 231954Z AUTO 00000KT 10SM FEW120 18/11 A2988 RMK AO2 SLP115 T01780111
                 =
2017-05-23 14:54 METAR KDYL 231854Z AUTO VRB03KT 10SM CLR 17/12 A2990 RMK AO2 SLP122 T01720117 =
2017-05-23 13:54 METAR KDYL 231754Z AUTO 16005KT 10SM CLR 17/12 A2992 RMK AO2 SLP129 T01720122
                 10183 20139 56016 =
2017-05-23 12:54 METAR KDYL 231654Z AUTO 00000KT 10SM CLR 18/12 A2993 RMK AO2 SLP134 T01780122 =
2017-05-23 11:54 METAR KDYL 231554Z AUTO 00000KT 10SM CLR 17/12 A2994 RMK AO2 SLP136 T01720122 =
2017-05-23 10:54 METAR KDYL 231454Z AUTO VRB03KT 10SM CLR 17/12 A2997 RMK AO2 SLP145 T01720122
                 53002 =
2017-05-23 09:54 METAR KDYL 231354Z AUTO 02005KT 10SM CLR 16/12 A2996 RMK AO2 SLP143 T01610122 =
2017-05-23 08:54 METAR KDYL 231254Z AUTO 01006KT 10SM CLR 15/12 A2996 RMK AO2 SLP143 T01500122 =
2017-05-23 07:54 METAR KDYL 231154Z AUTO 02003KT 10SM CLR 14/13 A2996 RMK AO2 SLP144 70033
                 T01390128 10144 20122 50007 =
2017-05-23 06:54 METAR KDYL 231054Z AUTO 03003KT 10SM CLR 13/13 A2997 RMK AO2 SLP146 T01280128 =
2017-05-23 06:34 METAR KDYL 231034Z AUTO 03003KT 5SM BR FEW003 13/13 A2996 RMK AO2 T01280128 =
2017-05-23 06:16 METAR KDYL 231016Z AUTO 04003KT 2 1/2SM BR FEW005 12/12 A2996 RMK AO2 T01220122
                 =
2017-05-23 06:10 METAR KDYL 231010Z AUTO 00000KT 3SM BR CLR 12/12 A2996 RMK AO2 T01220122 =
2017-05-23 06:03 METAR KDYL 231003Z AUTO 00000KT 2 1/2SM BR CLR 13/13 A2996 RMK AO2 T01280128 =
2017-05-23 05:54 METAR KDYL 230954Z AUTO 00000KT 1 3/4SM BR FEW009 13/13 A2996 RMK AO2 SLP143
                 T01280128 =
2017-05-23 04:54 METAR KDYL 230854Z AUTO 03004KT 6SM BR CLR 13/13 A2994 RMK AO2 SLP137 T01330133
                 55002 =

Support USWX by starting your Amazon purchase here.